sensor_id;sensor_type;location;lat;lon;timestamp;P1;durP1;ratioP1;P2;durP2;ratioP2
18194;SDS011;9223;50.988;3.162;2023-12-22T00:01:22;4.95;;;1.30;;
18194;SDS011;9223;50.988;3.162;2023-12-22T00:07:26;4.57;;;1.13;;
18194;SDS011;9223;50.988;3.162;2023-12-22T00:13:29;3.65;;;0.70;;
18194;SDS011;9223;50.988;3.162;2023-12-22T00:19:37;3.80;;;1.13;;
18194;SDS011;9223;50.988;3.162;2023-12-22T00:25:41;4.57;;;1.10;;
18194;SDS011;9223;50.988;3.162;2023-12-22T00:31:44;2.20;;;1.08;;
18194;SDS011;9223;50.988;3.162;2023-12-22T00:37:49;3.88;;;1.08;;
18194;SDS011;9223;50.988;3.162;2023-12-22T00:43:54;5.63;;;1.65;;
18194;SDS011;9223;50.988;3.162;2023-12-22T00:49:58;4.72;;;1.23;;
18194;SDS011;9223;50.988;3.162;2023-12-22T00:56:03;2.90;;;0.85;;
18194;SDS011;9223;50.988;3.162;2023-12-22T01:02:07;1.95;;;0.88;;
18194;SDS011;9223;50.988;3.162;2023-12-22T01:08:11;5.75;;;1.20;;
18194;SDS011;9223;50.988;3.162;2023-12-22T01:14:16;3.20;;;1.17;;
18194;SDS011;9223;50.988;3.162;2023-12-22T01:20:19;1.73;;;0.82;;
18194;SDS011;9223;50.988;3.162;2023-12-22T01:26:23;2.20;;;0.80;;
18194;SDS011;9223;50.988;3.162;2023-12-22T01:32:30;5.88;;;1.10;;
18194;SDS011;9223;50.988;3.162;2023-12-22T01:38:36;2.17;;;0.63;;
18194;SDS011;9223;50.988;3.162;2023-12-22T01:44:39;4.85;;;0.88;;
18194;SDS011;9223;50.988;3.162;2023-12-22T01:50:44;4.72;;;1.50;;
18194;SDS011;9223;50.988;3.162;2023-12-22T01:56:48;3.17;;;1.10;;
18194;SDS011;9223;50.988;3.162;2023-12-22T02:02:51;2.72;;;0.90;;
18194;SDS011;9223;50.988;3.162;2023-12-22T02:08:57;5.65;;;1.30;;
18194;SDS011;9223;50.988;3.162;2023-12-22T02:15:01;1.65;;;0.88;;
18194;SDS011;9223;50.988;3.162;2023-12-22T02:21:06;4.68;;;1.20;;
18194;SDS011;9223;50.988;3.162;2023-12-22T02:27:13;6.03;;;1.13;;
18194;SDS011;9223;50.988;3.162;2023-12-22T02:33:17;3.10;;;1.38;;
18194;SDS011;9223;50.988;3.162;2023-12-22T02:39:21;4.25;;;1.23;;
18194;SDS011;9223;50.988;3.162;2023-12-22T02:45:27;3.90;;;1.05;;
18194;SDS011;9223;50.988;3.162;2023-12-22T02:51:31;2.80;;;0.90;;
18194;SDS011;9223;50.988;3.162;2023-12-22T02:57:35;5.50;;;1.02;;
18194;SDS011;9223;50.988;3.162;2023-12-22T03:03:40;4.35;;;0.90;;
18194;SDS011;9223;50.988;3.162;2023-12-22T03:09:44;2.33;;;1.10;;
18194;SDS011;9223;50.988;3.162;2023-12-22T03:15:47;3.53;;;1.20;;
18194;SDS011;9223;50.988;3.162;2023-12-22T03:21:52;2.00;;;0.75;;
18194;SDS011;9223;50.988;3.162;2023-12-22T03:27:56;3.30;;;0.77;;
18194;SDS011;9223;50.988;3.162;2023-12-22T03:33:59;3.53;;;0.93;;
18194;SDS011;9223;50.988;3.162;2023-12-22T03:40:05;2.03;;;0.98;;
18194;SDS011;9223;50.988;3.162;2023-12-22T03:46:09;7.53;;;1.83;;
18194;SDS011;9223;50.988;3.162;2023-12-22T03:52:12;5.45;;;0.85;;
18194;SDS011;9223;50.988;3.162;2023-12-22T03:58:18;4.85;;;1.00;;
18194;SDS011;9223;50.988;3.162;2023-12-22T04:04:22;4.28;;;1.10;;
18194;SDS011;9223;50.988;3.162;2023-12-22T04:10:28;5.30;;;1.20;;
18194;SDS011;9223;50.988;3.162;2023-12-22T04:16:34;3.40;;;0.93;;
18194;SDS011;9223;50.988;3.162;2023-12-22T04:22:39;5.43;;;1.60;;
18194;SDS011;9223;50.988;3.162;2023-12-22T04:28:43;3.50;;;1.23;;
18194;SDS011;9223;50.988;3.162;2023-12-22T04:34:48;4.22;;;0.90;;
18194;SDS011;9223;50.988;3.162;2023-12-22T04:40:52;5.93;;;1.95;;
18194;SDS011;9223;50.988;3.162;2023-12-22T04:46:56;5.93;;;1.50;;
18194;SDS011;9223;50.988;3.162;2023-12-22T04:53:01;4.85;;;1.20;;
18194;SDS011;9223;50.988;3.162;2023-12-22T04:59:04;3.85;;;1.42;;
18194;SDS011;9223;50.988;3.162;2023-12-22T05:05:09;3.72;;;0.85;;
18194;SDS011;9223;50.988;3.162;2023-12-22T05:11:14;5.25;;;1.30;;
18194;SDS011;9223;50.988;3.162;2023-12-22T05:17:18;5.00;;;1.05;;
18194;SDS011;9223;50.988;3.162;2023-12-22T05:23:21;6.13;;;1.00;;
18194;SDS011;9223;50.988;3.162;2023-12-22T05:29:26;2.50;;;1.13;;
18194;SDS011;9223;50.988;3.162;2023-12-22T05:35:30;3.63;;;1.10;;
18194;SDS011;9223;50.988;3.162;2023-12-22T05:41:37;3.92;;;1.15;;
18194;SDS011;9223;50.988;3.162;2023-12-22T05:47:42;2.08;;;1.00;;
18194;SDS011;9223;50.988;3.162;2023-12-22T05:53:45;3.13;;;1.00;;
18194;SDS011;9223;50.988;3.162;2023-12-22T05:59:49;2.95;;;0.95;;
18194;SDS011;9223;50.988;3.162;2023-12-22T06:05:55;2.05;;;1.08;;
18194;SDS011;9223;50.988;3.162;2023-12-22T06:11:59;5.20;;;1.50;;
18194;SDS011;9223;50.988;3.162;2023-12-22T06:18:03;9.27;;;2.20;;
18194;SDS011;9223;50.988;3.162;2023-12-22T06:24:08;7.40;;;2.40;;
18194;SDS011;9223;50.988;3.162;2023-12-22T06:30:12;11.85;;;3.25;;
18194;SDS011;9223;50.988;3.162;2023-12-22T06:36:19;7.03;;;1.90;;
18194;SDS011;9223;50.988;3.162;2023-12-22T06:42:27;6.57;;;1.85;;
18194;SDS011;9223;50.988;3.162;2023-12-22T06:48:31;10.63;;;2.28;;
18194;SDS011;9223;50.988;3.162;2023-12-22T06:54:39;6.63;;;2.42;;
18194;SDS011;9223;50.988;3.162;2023-12-22T07:00:44;5.68;;;1.27;;
18194;SDS011;9223;50.988;3.162;2023-12-22T07:06:48;6.40;;;1.50;;
18194;SDS011;9223;50.988;3.162;2023-12-22T07:12:52;7.38;;;2.05;;
18194;SDS011;9223;50.988;3.162;2023-12-22T07:18:57;6.15;;;1.98;;
18194;SDS011;9223;50.988;3.162;2023-12-22T07:25:02;7.60;;;1.83;;
18194;SDS011;9223;50.988;3.162;2023-12-22T07:31:05;3.60;;;1.13;;
18194;SDS011;9223;50.988;3.162;2023-12-22T07:37:10;3.47;;;1.60;;
18194;SDS011;9223;50.988;3.162;2023-12-22T07:43:14;3.83;;;1.30;;
18194;SDS011;9223;50.988;3.162;2023-12-22T07:49:18;5.57;;;1.40;;
18194;SDS011;9223;50.988;3.162;2023-12-22T07:55:24;4.30;;;1.30;;
18194;SDS011;9223;50.988;3.162;2023-12-22T08:01:27;2.78;;;1.50;;
18194;SDS011;9223;50.988;3.162;2023-12-22T08:07:31;3.22;;;1.10;;
18194;SDS011;9223;50.988;3.162;2023-12-22T08:13:36;6.55;;;1.10;;
18194;SDS011;9223;50.988;3.162;2023-12-22T08:19:39;4.68;;;1.40;;
18194;SDS011;9223;50.988;3.162;2023-12-22T08:25:48;4.45;;;1.42;;
18194;SDS011;9223;50.988;3.162;2023-12-22T08:31:53;3.22;;;1.30;;
18194;SDS011;9223;50.988;3.162;2023-12-22T08:37:57;3.97;;;0.95;;
18194;SDS011;9223;50.988;3.162;2023-12-22T08:44:01;2.50;;;0.90;;
18194;SDS011;9223;50.988;3.162;2023-12-22T08:50:07;1.17;;;0.60;;
18194;SDS011;9223;50.988;3.162;2023-12-22T08:56:14;1.67;;;1.27;;
18194;SDS011;9223;50.988;3.162;2023-12-22T09:02:18;2.25;;;0.80;;
18194;SDS011;9223;50.988;3.162;2023-12-22T09:08:23;3.58;;;0.90;;
18194;SDS011;9223;50.988;3.162;2023-12-22T09:14:27;2.58;;;0.98;;
18194;SDS011;9223;50.988;3.162;2023-12-22T09:20:31;3.85;;;0.95;;
18194;SDS011;9223;50.988;3.162;2023-12-22T09:26:36;2.15;;;0.90;;
18194;SDS011;9223;50.988;3.162;2023-12-22T09:32:40;2.80;;;1.08;;
18194;SDS011;9223;50.988;3.162;2023-12-22T09:38:45;2.60;;;0.70;;
18194;SDS011;9223;50.988;3.162;2023-12-22T09:44:50;2.33;;;0.80;;
18194;SDS011;9223;50.988;3.162;2023-12-22T09:50:56;0.80;;;0.60;;
18194;SDS011;9223;50.988;3.162;2023-12-22T09:57:01;1.83;;;0.60;;
18194;SDS011;9223;50.988;3.162;2023-12-22T10:03:24;2.72;;;0.80;;
18194;SDS011;9223;50.988;3.162;2023-12-22T10:09:29;3.17;;;0.93;;
18194;SDS011;9223;50.988;3.162;2023-12-22T10:15:32;1.35;;;0.63;;
18194;SDS011;9223;50.988;3.162;2023-12-22T10:21:37;2.22;;;0.57;;
18194;SDS011;9223;50.988;3.162;2023-12-22T10:27:41;2.25;;;1.10;;
18194;SDS011;9223;50.988;3.162;2023-12-22T10:33:45;2.45;;;0.98;;
18194;SDS011;9223;50.988;3.162;2023-12-22T10:39:53;0.90;;;0.50;;
18194;SDS011;9223;50.988;3.162;2023-12-22T10:45:57;4.00;;;0.75;;
18194;SDS011;9223;50.988;3.162;2023-12-22T10:52:00;2.47;;;0.47;;
18194;SDS011;9223;50.988;3.162;2023-12-22T10:58:06;5.22;;;0.70;;
18194;SDS011;9223;50.988;3.162;2023-12-22T11:04:12;1.33;;;0.60;;
18194;SDS011;9223;50.988;3.162;2023-12-22T11:10:18;0.75;;;0.40;;
18194;SDS011;9223;50.988;3.162;2023-12-22T11:16:27;1.90;;;0.50;;
18194;SDS011;9223;50.988;3.162;2023-12-22T11:22:31;1.55;;;0.60;;
18194;SDS011;9223;50.988;3.162;2023-12-22T11:28:35;1.45;;;0.50;;
18194;SDS011;9223;50.988;3.162;2023-12-22T11:34:40;2.65;;;0.60;;
18194;SDS011;9223;50.988;3.162;2023-12-22T11:40:45;0.93;;;0.60;;
18194;SDS011;9223;50.988;3.162;2023-12-22T11:47:02;2.05;;;0.50;;
18194;SDS011;9223;50.988;3.162;2023-12-22T11:53:20;2.55;;;0.60;;
18194;SDS011;9223;50.988;3.162;2023-12-22T11:59:24;1.10;;;0.43;;
18194;SDS011;9223;50.988;3.162;2023-12-22T12:05:28;1.35;;;0.75;;
18194;SDS011;9223;50.988;3.162;2023-12-22T12:17:55;1.98;;;0.60;;
18194;SDS011;9223;50.988;3.162;2023-12-22T12:23:58;0.32;;;0.32;;
18194;SDS011;9223;50.988;3.162;2023-12-22T12:30:11;3.42;;;0.68;;
18194;SDS011;9223;50.988;3.162;2023-12-22T12:36:16;2.90;;;0.40;;
18194;SDS011;9223;50.988;3.162;2023-12-22T12:42:20;1.23;;;0.32;;
18194;SDS011;9223;50.988;3.162;2023-12-22T12:48:25;0.82;;;0.32;;
18194;SDS011;9223;50.988;3.162;2023-12-22T12:54:31;0.80;;;0.40;;
18194;SDS011;9223;50.988;3.162;2023-12-22T13:00:34;1.45;;;0.57;;
18194;SDS011;9223;50.988;3.162;2023-12-22T13:06:44;1.55;;;0.50;;
18194;SDS011;9223;50.988;3.162;2023-12-22T13:12:51;1.02;;;0.40;;
18194;SDS011;9223;50.988;3.162;2023-12-22T13:18:56;1.10;;;0.38;;
18194;SDS011;9223;50.988;3.162;2023-12-22T13:25:00;1.00;;;0.50;;
18194;SDS011;9223;50.988;3.162;2023-12-22T13:31:09;1.75;;;0.40;;
18194;SDS011;9223;50.988;3.162;2023-12-22T13:37:15;1.33;;;0.50;;
18194;SDS011;9223;50.988;3.162;2023-12-22T13:43:19;0.38;;;0.30;;
18194;SDS011;9223;50.988;3.162;2023-12-22T13:49:24;1.23;;;0.40;;
18194;SDS011;9223;50.988;3.162;2023-12-22T13:55:28;2.97;;;0.50;;
18194;SDS011;9223;50.988;3.162;2023-12-22T14:01:38;1.40;;;0.47;;
18194;SDS011;9223;50.988;3.162;2023-12-22T14:07:45;1.30;;;0.40;;
18194;SDS011;9223;50.988;3.162;2023-12-22T14:13:49;1.67;;;0.40;;
18194;SDS011;9223;50.988;3.162;2023-12-22T14:19:53;0.73;;;0.43;;
18194;SDS011;9223;50.988;3.162;2023-12-22T14:25:58;1.10;;;0.40;;
18194;SDS011;9223;50.988;3.162;2023-12-22T14:32:01;2.03;;;0.75;;
18194;SDS011;9223;50.988;3.162;2023-12-22T14:38:06;2.67;;;0.60;;
18194;SDS011;9223;50.988;3.162;2023-12-22T14:44:11;2.10;;;0.43;;
18194;SDS011;9223;50.988;3.162;2023-12-22T14:50:15;1.85;;;0.82;;
18194;SDS011;9223;50.988;3.162;2023-12-22T14:56:20;1.17;;;0.40;;
18194;SDS011;9223;50.988;3.162;2023-12-22T15:02:26;2.53;;;0.50;;
18194;SDS011;9223;50.988;3.162;2023-12-22T15:08:31;1.48;;;0.55;;
18194;SDS011;9223;50.988;3.162;2023-12-22T15:14:42;1.52;;;0.60;;
18194;SDS011;9223;50.988;3.162;2023-12-22T15:20:48;1.98;;;0.55;;
18194;SDS011;9223;50.988;3.162;2023-12-22T15:26:52;1.40;;;0.52;;
18194;SDS011;9223;50.988;3.162;2023-12-22T15:32:56;1.73;;;0.60;;
18194;SDS011;9223;50.988;3.162;2023-12-22T15:39:01;4.28;;;0.60;;
18194;SDS011;9223;50.988;3.162;2023-12-22T15:45:05;0.50;;;0.20;;
18194;SDS011;9223;50.988;3.162;2023-12-22T15:51:10;1.92;;;0.73;;
18194;SDS011;9223;50.988;3.162;2023-12-22T15:57:17;1.70;;;0.80;;
18194;SDS011;9223;50.988;3.162;2023-12-22T16:03:21;2.53;;;0.50;;
18194;SDS011;9223;50.988;3.162;2023-12-22T16:09:24;1.58;;;0.40;;
18194;SDS011;9223;50.988;3.162;2023-12-22T16:15:29;2.13;;;0.60;;
18194;SDS011;9223;50.988;3.162;2023-12-22T16:21:33;2.60;;;0.90;;
18194;SDS011;9223;50.988;3.162;2023-12-22T16:27:43;2.15;;;0.80;;
18194;SDS011;9223;50.988;3.162;2023-12-22T16:33:48;1.25;;;0.55;;
18194;SDS011;9223;50.988;3.162;2023-12-22T16:39:52;1.25;;;0.40;;
18194;SDS011;9223;50.988;3.162;2023-12-22T16:45:56;5.60;;;1.30;;
18194;SDS011;9223;50.988;3.162;2023-12-22T16:52:01;2.92;;;0.85;;
18194;SDS011;9223;50.988;3.162;2023-12-22T16:58:04;3.15;;;0.98;;
18194;SDS011;9223;50.988;3.162;2023-12-22T17:04:08;7.28;;;1.10;;
18194;SDS011;9223;50.988;3.162;2023-12-22T17:10:14;2.05;;;0.57;;
18194;SDS011;9223;50.988;3.162;2023-12-22T17:16:17;6.82;;;0.82;;
18194;SDS011;9223;50.988;3.162;2023-12-22T17:22:21;1.63;;;0.45;;
18194;SDS011;9223;50.988;3.162;2023-12-22T17:28:25;1.35;;;0.55;;
18194;SDS011;9223;50.988;3.162;2023-12-22T17:34:29;2.42;;;0.63;;
18194;SDS011;9223;50.988;3.162;2023-12-22T17:40:33;5.80;;;1.08;;
18194;SDS011;9223;50.988;3.162;2023-12-22T17:46:38;3.70;;;0.63;;
18194;SDS011;9223;50.988;3.162;2023-12-22T17:52:42;2.05;;;0.63;;
18194;SDS011;9223;50.988;3.162;2023-12-22T17:58:45;2.72;;;0.80;;
18194;SDS011;9223;50.988;3.162;2023-12-22T18:04:50;2.60;;;0.80;;
18194;SDS011;9223;50.988;3.162;2023-12-22T18:10:54;3.05;;;0.77;;
18194;SDS011;9223;50.988;3.162;2023-12-22T18:16:57;6.30;;;0.90;;
18194;SDS011;9223;50.988;3.162;2023-12-22T18:23:02;1.92;;;0.60;;
18194;SDS011;9223;50.988;3.162;2023-12-22T18:29:06;3.15;;;0.85;;
18194;SDS011;9223;50.988;3.162;2023-12-22T18:35:10;1.40;;;0.30;;
18194;SDS011;9223;50.988;3.162;2023-12-22T18:41:15;1.52;;;0.60;;
18194;SDS011;9223;50.988;3.162;2023-12-22T18:47:19;0.82;;;0.50;;
18194;SDS011;9223;50.988;3.162;2023-12-22T18:53:22;1.38;;;0.68;;
18194;SDS011;9223;50.988;3.162;2023-12-22T18:59:27;1.88;;;0.70;;
18194;SDS011;9223;50.988;3.162;2023-12-22T19:05:31;2.65;;;0.90;;
18194;SDS011;9223;50.988;3.162;2023-12-22T19:11:35;3.08;;;0.63;;
18194;SDS011;9223;50.988;3.162;2023-12-22T19:17:40;4.55;;;1.10;;
18194;SDS011;9223;50.988;3.162;2023-12-22T19:23:43;1.80;;;0.70;;
18194;SDS011;9223;50.988;3.162;2023-12-22T19:29:47;2.63;;;0.50;;
18194;SDS011;9223;50.988;3.162;2023-12-22T19:35:52;5.22;;;0.95;;
18194;SDS011;9223;50.988;3.162;2023-12-22T19:41:56;2.05;;;0.60;;
18194;SDS011;9223;50.988;3.162;2023-12-22T19:47:59;1.80;;;0.55;;
18194;SDS011;9223;50.988;3.162;2023-12-22T19:54:04;3.85;;;1.05;;
18194;SDS011;9223;50.988;3.162;2023-12-22T20:00:08;1.77;;;0.52;;
18194;SDS011;9223;50.988;3.162;2023-12-22T20:06:13;3.00;;;0.80;;
18194;SDS011;9223;50.988;3.162;2023-12-22T20:12:18;4.78;;;1.25;;
18194;SDS011;9223;50.988;3.162;2023-12-22T20:18:22;4.57;;;0.68;;
18194;SDS011;9223;50.988;3.162;2023-12-22T20:24:26;6.38;;;1.67;;
18194;SDS011;9223;50.988;3.162;2023-12-22T20:30:31;3.28;;;0.80;;
18194;SDS011;9223;50.988;3.162;2023-12-22T20:36:35;9.05;;;2.15;;
18194;SDS011;9223;50.988;3.162;2023-12-22T20:42:40;7.75;;;2.30;;
18194;SDS011;9223;50.988;3.162;2023-12-22T20:48:45;8.98;;;2.35;;
18194;SDS011;9223;50.988;3.162;2023-12-22T20:54:48;11.32;;;2.28;;
18194;SDS011;9223;50.988;3.162;2023-12-22T21:00:52;9.45;;;2.60;;
18194;SDS011;9223;50.988;3.162;2023-12-22T21:06:57;6.15;;;2.05;;
18194;SDS011;9223;50.988;3.162;2023-12-22T21:13:01;6.07;;;1.92;;
18194;SDS011;9223;50.988;3.162;2023-12-22T21:19:05;5.13;;;1.80;;
18194;SDS011;9223;50.988;3.162;2023-12-22T21:25:10;9.45;;;1.83;;
18194;SDS011;9223;50.988;3.162;2023-12-22T21:31:14;6.28;;;1.55;;
18194;SDS011;9223;50.988;3.162;2023-12-22T21:37:17;6.25;;;1.60;;
18194;SDS011;9223;50.988;3.162;2023-12-22T21:43:23;9.63;;;2.13;;
18194;SDS011;9223;50.988;3.162;2023-12-22T21:49:27;6.78;;;1.70;;
18194;SDS011;9223;50.988;3.162;2023-12-22T21:55:30;8.23;;;2.03;;
18194;SDS011;9223;50.988;3.162;2023-12-22T22:01:38;4.93;;;1.60;;
18194;SDS011;9223;50.988;3.162;2023-12-22T22:07:46;4.13;;;1.70;;
18194;SDS011;9223;50.988;3.162;2023-12-22T22:13:49;7.18;;;1.85;;
18194;SDS011;9223;50.988;3.162;2023-12-22T22:19:54;8.20;;;1.77;;
18194;SDS011;9223;50.988;3.162;2023-12-22T22:25:58;4.45;;;1.60;;
18194;SDS011;9223;50.988;3.162;2023-12-22T22:32:03;6.22;;;1.63;;
18194;SDS011;9223;50.988;3.162;2023-12-22T22:38:08;2.45;;;1.10;;
18194;SDS011;9223;50.988;3.162;2023-12-22T22:44:12;6.03;;;1.20;;
18194;SDS011;9223;50.988;3.162;2023-12-22T22:50:16;5.18;;;1.50;;
18194;SDS011;9223;50.988;3.162;2023-12-22T22:56:20;5.07;;;1.52;;
18194;SDS011;9223;50.988;3.162;2023-12-22T23:02:25;1.70;;;0.70;;
18194;SDS011;9223;50.988;3.162;2023-12-22T23:08:30;4.07;;;1.23;;
18194;SDS011;9223;50.988;3.162;2023-12-22T23:14:35;2.17;;;1.00;;
18194;SDS011;9223;50.988;3.162;2023-12-22T23:20:40;2.60;;;1.10;;
18194;SDS011;9223;50.988;3.162;2023-12-22T23:26:44;4.32;;;1.35;;
18194;SDS011;9223;50.988;3.162;2023-12-22T23:32:49;2.95;;;0.90;;
18194;SDS011;9223;50.988;3.162;2023-12-22T23:38:52;2.97;;;1.13;;
18194;SDS011;9223;50.988;3.162;2023-12-22T23:44:56;2.28;;;1.30;;
18194;SDS011;9223;50.988;3.162;2023-12-22T23:51:01;3.05;;;0.73;;
18194;SDS011;9223;50.988;3.162;2023-12-22T23:57:04;1.92;;;0.80;;
